sensor_id;sensor_type;location;lat;lon;timestamp;pressure;altitude;pressure_sealevel;temperature;humidity
39793;BME280;26080;42.264;24.536;2023-01-26T00:02:11;100171.44;;;1.63;100.00
39793;BME280;26080;42.264;24.536;2023-01-26T00:04:36;100174.88;;;1.56;100.00
39793;BME280;26080;42.264;24.536;2023-01-26T00:07:02;100118.00;;;1.34;100.00
39793;BME280;26080;42.264;24.536;2023-01-26T00:09:27;100142.16;;;1.59;100.00
39793;BME280;26080;42.264;24.536;2023-01-26T00:11:53;100163.75;;;1.81;100.00
39793;BME280;26080;42.264;24.536;2023-01-26T00:14:18;100150.81;;;1.87;100.00
39793;BME280;26080;42.264;24.536;2023-01-26T00:16:44;100128.44;;;1.89;100.00
39793;BME280;26080;42.264;24.536;2023-01-26T00:19:09;100137.91;;;2.01;100.00
39793;BME280;26080;42.264;24.536;2023-01-26T00:21:35;100145.66;;;2.05;100.00
39793;BME280;26080;42.264;24.536;2023-01-26T00:24:00;100131.91;;;2.06;100.00
39793;BME280;26080;42.264;24.536;2023-01-26T00:26:26;100126.72;;;2.00;100.00
39793;BME280;26080;42.264;24.536;2023-01-26T00:28:53;100121.56;;;2.03;100.00
39793;BME280;26080;42.264;24.536;2023-01-26T00:31:21;100130.19;;;1.96;100.00
39793;BME280;26080;42.264;24.536;2023-01-26T00:33:47;100121.56;;;2.03;100.00
39793;BME280;26080;42.264;24.536;2023-01-26T00:36:12;100126.75;;;2.06;100.00
39793;BME280;26080;42.264;24.536;2023-01-26T00:38:38;100142.22;;;2.03;100.00
39793;BME280;26080;42.264;24.536;2023-01-26T00:41:04;100131.91;;;1.97;100.00
39793;BME280;26080;42.264;24.536;2023-01-26T00:43:30;100138.78;;;1.98;100.00
39793;BME280;26080;42.264;24.536;2023-01-26T00:45:56;100142.22;;;1.85;100.00
39793;BME280;26080;42.264;24.536;2023-01-26T00:48:21;100140.47;;;1.78;100.00
39793;BME280;26080;42.264;24.536;2023-01-26T00:50:49;100129.31;;;1.84;100.00
39793;BME280;26080;42.264;24.536;2023-01-26T00:53:14;100133.63;;;1.98;100.00
39793;BME280;26080;42.264;24.536;2023-01-26T00:55:40;100130.19;;;1.99;100.00
39793;BME280;26080;42.264;24.536;2023-01-26T00:58:06;100124.16;;;2.10;100.00
39793;BME280;26080;42.264;24.536;2023-01-26T01:00:34;100137.94;;;2.12;100.00
39793;BME280;26080;42.264;24.536;2023-01-26T01:03:00;100129.31;;;2.14;100.00
39793;BME280;26080;42.264;24.536;2023-01-26T01:05:27;100126.72;;;2.05;100.00
39793;BME280;26080;42.264;24.536;2023-01-26T01:07:53;100106.06;;;2.10;100.00
39793;BME280;26080;42.264;24.536;2023-01-26T01:10:19;100114.69;;;1.96;100.00
39793;BME280;26080;42.264;24.536;2023-01-26T01:12:44;100115.53;;;1.82;100.00
39793;BME280;26080;42.264;24.536;2023-01-26T01:15:10;100102.63;;;1.78;100.00
39793;BME280;26080;42.264;24.536;2023-01-26T01:17:36;100100.03;;;1.83;100.00
39793;BME280;26080;42.264;24.536;2023-01-26T01:20:03;100109.50;;;1.87;100.00
39793;BME280;26080;42.264;24.536;2023-01-26T01:22:30;100105.16;;;1.77;100.00
39793;BME280;26080;42.264;24.536;2023-01-26T01:24:56;100102.59;;;1.77;100.00
39793;BME280;26080;42.264;24.536;2023-01-26T01:27:21;100069.88;;;1.58;100.00
39793;BME280;26080;42.264;24.536;2023-01-26T01:29:49;100099.16;;;1.84;100.00
39793;BME280;26080;42.264;24.536;2023-01-26T01:32:14;100088.84;;;1.96;100.00
39793;BME280;26080;42.264;24.536;2023-01-26T01:34:40;100076.78;;;1.83;100.00
39793;BME280;26080;42.264;24.536;2023-01-26T01:37:05;100093.16;;;1.93;100.00
39793;BME280;26080;42.264;24.536;2023-01-26T01:39:31;100096.56;;;1.87;100.00
39793;BME280;26080;42.264;24.536;2023-01-26T01:41:56;100097.47;;;1.92;100.00
39793;BME280;26080;42.264;24.536;2023-01-26T01:44:23;100091.44;;;1.95;100.00
39793;BME280;26080;42.264;24.536;2023-01-26T01:47:02;100098.28;;;1.90;100.00
39793;BME280;26080;42.264;24.536;2023-01-26T01:52:01;100069.88;;;1.87;100.00
39793;BME280;26080;42.264;24.536;2023-01-26T01:54:45;100088.84;;;1.99;100.00
39793;BME280;26080;42.264;24.536;2023-01-26T01:57:20;100067.31;;;2.00;100.00
39793;BME280;26080;42.264;24.536;2023-01-26T02:00:14;100081.06;;;2.05;100.00
39793;BME280;26080;42.264;24.536;2023-01-26T02:02:42;100072.47;;;2.11;100.00
39793;BME280;26080;42.264;24.536;2023-01-26T02:05:23;100066.41;;;2.17;100.00
39793;BME280;26080;42.264;24.536;2023-01-26T02:07:50;100030.25;;;2.04;100.00
39793;BME280;26080;42.264;24.536;2023-01-26T02:10:19;100009.63;;;1.77;100.00
39793;BME280;26080;42.264;24.536;2023-01-26T02:12:51;100050.97;;;1.82;100.00
39793;BME280;26080;42.264;24.536;2023-01-26T02:15:19;100042.34;;;1.83;100.00
39793;BME280;26080;42.264;24.536;2023-01-26T02:17:45;100037.16;;;1.87;100.00
39793;BME280;26080;42.264;24.536;2023-01-26T02:28:24;100036.31;;;1.65;100.00
39793;BME280;26080;42.264;24.536;2023-01-26T02:30:52;100032.00;;;1.72;100.00
39793;BME280;26080;42.264;24.536;2023-01-26T02:33:24;100029.44;;;1.80;100.00
39793;BME280;26080;42.264;24.536;2023-01-26T02:35:49;100025.13;;;1.74;100.00
39793;BME280;26080;42.264;24.536;2023-01-26T02:38:15;100029.44;;;1.70;100.00
39793;BME280;26080;42.264;24.536;2023-01-26T02:40:45;100026.84;;;1.72;100.00
39793;BME280;26080;42.264;24.536;2023-01-26T02:43:12;100023.38;;;1.76;100.00
39793;BME280;26080;42.264;24.536;2023-01-26T02:45:39;100028.53;;;1.91;100.00
39793;BME280;26080;42.264;24.536;2023-01-26T02:48:05;100028.56;;;1.94;100.00
39793;BME280;26080;42.264;24.536;2023-01-26T02:50:32;100025.97;;;1.91;100.00
39793;BME280;26080;42.264;24.536;2023-01-26T02:52:58;100015.63;;;1.90;100.00
39793;BME280;26080;42.264;24.536;2023-01-26T02:55:27;100019.97;;;1.83;100.00
39793;BME280;26080;42.264;24.536;2023-01-26T02:58:00;100019.09;;;1.73;100.00
39793;BME280;26080;42.264;24.536;2023-01-26T03:00:31;100013.06;;;1.70;100.00
39793;BME280;26080;42.264;24.536;2023-01-26T03:03:00;100012.22;;;1.60;100.00
39793;BME280;26080;42.264;24.536;2023-01-26T03:05:26;100007.91;;;1.48;100.00
39793;BME280;26080;42.264;24.536;2023-01-26T03:07:52;100001.88;;;1.57;100.00
39793;BME280;26080;42.264;24.536;2023-01-26T03:10:18;99999.31;;;1.59;100.00
39793;BME280;26080;42.264;24.536;2023-01-26T03:12:44;99993.25;;;1.64;100.00
39793;BME280;26080;42.264;24.536;2023-01-26T03:15:10;99984.66;;;1.61;100.00
39793;BME280;26080;42.264;24.536;2023-01-26T03:18:05;99937.34;;;1.31;100.00
39793;BME280;26080;42.264;24.536;2023-01-26T03:20:49;99970.03;;;1.51;100.00
39793;BME280;26080;42.264;24.536;2023-01-26T03:23:33;99959.72;;;1.47;100.00
39793;BME280;26080;42.264;24.536;2023-01-26T03:26:17;99962.31;;;1.55;100.00
39793;BME280;26080;42.264;24.536;2023-01-26T03:29:01;99966.63;;;1.65;100.00
39793;BME280;26080;42.264;24.536;2023-01-26T03:31:27;99965.75;;;1.57;100.00
39793;BME280;26080;42.264;24.536;2023-01-26T03:33:52;99957.13;;;1.63;100.00
39793;BME280;26080;42.264;24.536;2023-01-26T03:36:18;99946.81;;;1.60;100.00
39793;BME280;26080;42.264;24.536;2023-01-26T03:38:43;99930.47;;;1.47;100.00
39793;BME280;26080;42.264;24.536;2023-01-26T03:41:09;99946.81;;;1.66;100.00
39793;BME280;26080;42.264;24.536;2023-01-26T03:43:52;99945.94;;;1.61;100.00
39793;BME280;26080;42.264;24.536;2023-01-26T03:46:36;99941.63;;;1.63;100.00
39793;BME280;26080;42.264;24.536;2023-01-26T03:49:20;99939.91;;;1.75;100.00
39793;BME280;26080;42.264;24.536;2023-01-26T03:52:04;99935.63;;;1.70;100.00
39793;BME280;26080;42.264;24.536;2023-01-26T03:54:49;99933.88;;;1.75;100.00
39793;BME280;26080;42.264;24.536;2023-01-26T03:57:33;99935.63;;;1.70;100.00
39793;BME280;26080;42.264;24.536;2023-01-26T04:00:00;99930.44;;;1.71;100.00
39793;BME280;26080;42.264;24.536;2023-01-26T04:02:25;99927.00;;;1.72;100.00
39793;BME280;26080;42.264;24.536;2023-01-26T04:05:09;99926.13;;;1.75;100.00
39793;BME280;26080;42.264;24.536;2023-01-26T04:07:53;99928.69;;;1.78;100.00
39793;BME280;26080;42.264;24.536;2023-01-26T04:10:37;99921.84;;;1.71;100.00
39793;BME280;26080;42.264;24.536;2023-01-26T04:13:02;99917.53;;;1.67;100.00
39793;BME280;26080;42.264;24.536;2023-01-26T04:15:47;99923.56;;;1.67;100.00
39793;BME280;26080;42.264;24.536;2023-01-26T04:18:31;99923.53;;;1.78;100.00
39793;BME280;26080;42.264;24.536;2023-01-26T04:21:16;99923.53;;;1.78;100.00
39793;BME280;26080;42.264;24.536;2023-01-26T04:23:55;99936.47;;;1.80;100.00
39793;BME280;26080;42.264;24.536;2023-01-26T04:26:22;99924.38;;;1.86;100.00
39793;BME280;26080;42.264;24.536;2023-01-26T04:28:48;99921.81;;;1.86;100.00
39793;BME280;26080;42.264;24.536;2023-01-26T04:31:13;99907.19;;;1.84;100.00
39793;BME280;26080;42.264;24.536;2023-01-26T04:33:40;99912.34;;;1.82;100.00
39793;BME280;26080;42.264;24.536;2023-01-26T04:36:07;99901.16;;;1.82;100.00
39793;BME280;26080;42.264;24.536;2023-01-26T04:38:33;99892.56;;;1.63;100.00
39793;BME280;26080;42.264;24.536;2023-01-26T04:40:58;99869.34;;;1.60;100.00
39793;BME280;26080;42.264;24.536;2023-01-26T04:43:24;99895.13;;;1.78;100.00
39793;BME280;26080;42.264;24.536;2023-01-26T04:45:57;99894.28;;;1.73;100.00
39793;BME280;26080;42.264;24.536;2023-01-26T04:48:23;99889.97;;;1.64;100.00
39793;BME280;26080;42.264;24.536;2023-01-26T04:51:00;99865.06;;;1.59;100.00
39793;BME280;26080;42.264;24.536;2023-01-26T04:53:26;99887.38;;;1.75;100.00
39793;BME280;26080;42.264;24.536;2023-01-26T04:55:52;99892.56;;;1.73;100.00
39793;BME280;26080;42.264;24.536;2023-01-26T04:58:18;99902.88;;;1.76;100.00
39793;BME280;26080;42.264;24.536;2023-01-26T05:00:45;99899.44;;;1.64;100.00
39793;BME280;26080;42.264;24.536;2023-01-26T05:03:14;99891.72;;;1.58;100.00
39793;BME280;26080;42.264;24.536;2023-01-26T05:05:39;99894.31;;;1.61;100.00
39793;BME280;26080;42.264;24.536;2023-01-26T05:08:05;99896.88;;;1.71;100.00
39793;BME280;26080;42.264;24.536;2023-01-26T05:10:31;99895.13;;;1.83;100.00
39793;BME280;26080;42.264;24.536;2023-01-26T05:12:57;99896.00;;;1.74;100.00
39793;BME280;26080;42.264;24.536;2023-01-26T05:15:23;99892.59;;;1.66;100.00
39793;BME280;26080;42.264;24.536;2023-01-26T05:17:48;99898.59;;;1.74;100.00
39793;BME280;26080;42.264;24.536;2023-01-26T05:20:14;99889.13;;;1.70;100.00
39793;BME280;26080;42.264;24.536;2023-01-26T05:22:40;99885.69;;;1.72;100.00
39793;BME280;26080;42.264;24.536;2023-01-26T05:25:05;99886.56;;;1.56;100.00
39793;BME280;26080;42.264;24.536;2023-01-26T05:27:31;99886.59;;;1.52;100.00
39793;BME280;26080;42.264;24.536;2023-01-26T05:29:57;99881.44;;;1.52;100.00
39793;BME280;26080;42.264;24.536;2023-01-26T05:32:28;99883.97;;;1.61;100.00
39793;BME280;26080;42.264;24.536;2023-01-26T05:34:54;99870.22;;;1.59;100.00
39793;BME280;26080;42.264;24.536;2023-01-26T05:37:20;99872.78;;;1.71;100.00
39793;BME280;26080;42.264;24.536;2023-01-26T05:39:51;99871.88;;;1.78;100.00
39793;BME280;26080;42.264;24.536;2023-01-26T05:42:17;99849.56;;;1.48;100.00
39793;BME280;26080;42.264;24.536;2023-01-26T05:44:42;99871.97;;;1.54;100.00
39793;BME280;26080;42.264;24.536;2023-01-26T05:47:08;99855.66;;;1.26;100.00
39793;BME280;26080;42.264;24.536;2023-01-26T05:49:33;99863.34;;;1.36;100.00
39793;BME280;26080;42.264;24.536;2023-01-26T05:52:00;99878.84;;;1.53;100.00
39793;BME280;26080;42.264;24.536;2023-01-26T05:54:25;99875.38;;;1.59;100.00
39793;BME280;26080;42.264;24.536;2023-01-26T05:56:51;99883.09;;;1.69;100.00
39793;BME280;26080;42.264;24.536;2023-01-26T05:59:17;99876.22;;;1.67;100.00
39793;BME280;26080;42.264;24.536;2023-01-26T06:01:43;99871.91;;;1.72;100.00
39793;BME280;26080;42.264;24.536;2023-01-26T06:04:09;99868.47;;;1.64;100.00
39793;BME280;26080;42.264;24.536;2023-01-26T06:06:34;99885.66;;;1.80;100.00
39793;BME280;26080;42.264;24.536;2023-01-26T06:08:59;99859.88;;;1.60;100.00
39793;BME280;26080;42.264;24.536;2023-01-26T06:11:25;99884.00;;;1.65;100.00
39793;BME280;26080;42.264;24.536;2023-01-26T06:13:51;99881.38;;;1.70;100.00
39793;BME280;26080;42.264;24.536;2023-01-26T06:16:16;99874.47;;;1.75;100.00
39793;BME280;26080;42.264;24.536;2023-01-26T06:18:41;99868.44;;;1.82;100.00
39793;BME280;26080;42.264;24.536;2023-01-26T06:21:07;99867.56;;;1.83;100.00
39793;BME280;26080;42.264;24.536;2023-01-26T06:23:32;99864.97;;;1.86;100.00
39793;BME280;26080;42.264;24.536;2023-01-26T06:25:59;99871.03;;;1.84;100.00
39793;BME280;26080;42.264;24.536;2023-01-26T06:28:25;99856.41;;;1.73;100.00
39793;BME280;26080;42.264;24.536;2023-01-26T06:30:50;99871.91;;;1.73;100.00
39793;BME280;26080;42.264;24.536;2023-01-26T06:33:16;99854.69;;;1.71;100.00
39793;BME280;26080;42.264;24.536;2023-01-26T06:35:41;99873.59;;;1.85;100.00
39793;BME280;26080;42.264;24.536;2023-01-26T06:38:07;99871.00;;;1.87;100.00
39793;BME280;26080;42.264;24.536;2023-01-26T06:40:32;99872.72;;;1.89;100.00
39793;BME280;26080;42.264;24.536;2023-01-26T06:42:58;99871.00;;;1.93;100.00
39793;BME280;26080;42.264;24.536;2023-01-26T06:45:23;99867.56;;;1.88;100.00
39793;BME280;26080;42.264;24.536;2023-01-26T06:47:49;99865.81;;;1.88;100.00
39793;BME280;26080;42.264;24.536;2023-01-26T06:50:18;99834.88;;;1.76;100.00
39793;BME280;26080;42.264;24.536;2023-01-26T06:52:47;99859.72;;;2.04;100.00
39793;BME280;26080;42.264;24.536;2023-01-26T06:55:21;99863.19;;;2.02;100.00
39793;BME280;26080;42.264;24.536;2023-01-26T06:57:48;99839.13;;;1.95;100.00
39793;BME280;26080;42.264;24.536;2023-01-26T07:00:14;99864.06;;;2.02;100.00
39793;BME280;26080;42.264;24.536;2023-01-26T07:02:40;99831.44;;;1.82;100.00
39793;BME280;26080;42.264;24.536;2023-01-26T07:05:06;99846.00;;;1.90;100.00
39793;BME280;26080;42.264;24.536;2023-01-26T07:07:34;99837.38;;;1.97;100.00
39793;BME280;26080;42.264;24.536;2023-01-26T07:10:00;99845.16;;;1.90;100.00
39793;BME280;26080;42.264;24.536;2023-01-26T07:12:42;99845.16;;;1.90;100.00
39793;BME280;26080;42.264;24.536;2023-01-26T07:15:09;99838.28;;;1.87;100.00
39793;BME280;26080;42.264;24.536;2023-01-26T07:17:36;99818.56;;;1.65;100.00
39793;BME280;26080;42.264;24.536;2023-01-26T07:20:01;99826.25;;;1.82;100.00
39793;BME280;26080;42.264;24.536;2023-01-26T07:22:27;99820.19;;;1.90;100.00
39793;BME280;26080;42.264;24.536;2023-01-26T07:24:52;99814.16;;;1.88;100.00
39793;BME280;26080;42.264;24.536;2023-01-26T07:27:18;99805.59;;;1.85;100.00
39793;BME280;26080;42.264;24.536;2023-01-26T07:29:43;99799.59;;;1.70;100.00
39793;BME280;26080;42.264;24.536;2023-01-26T07:32:10;99804.72;;;1.83;100.00
39793;BME280;26080;42.264;24.536;2023-01-26T07:34:36;99812.41;;;1.96;100.00
39793;BME280;26080;42.264;24.536;2023-01-26T07:37:01;99812.38;;;2.02;100.00
39793;BME280;26080;42.264;24.536;2023-01-26T07:39:27;99804.63;;;2.02;100.00
39793;BME280;26080;42.264;24.536;2023-01-26T07:41:52;99794.28;;;2.05;100.00
39793;BME280;26080;42.264;24.536;2023-01-26T07:44:18;99792.56;;;2.04;100.00
39793;BME280;26080;42.264;24.536;2023-01-26T07:46:43;99785.66;;;2.11;100.00
39793;BME280;26080;42.264;24.536;2023-01-26T07:49:09;99790.72;;;2.28;100.00
39793;BME280;26080;42.264;24.536;2023-01-26T07:51:36;99805.44;;;2.12;100.00
39793;BME280;26080;42.264;24.536;2023-01-26T07:54:04;99798.53;;;2.14;100.00
39793;BME280;26080;42.264;24.536;2023-01-26T07:56:30;99782.19;;;2.12;100.00
39793;BME280;26080;42.264;24.536;2023-01-26T07:58:55;99769.31;;;2.06;100.00
39793;BME280;26080;42.264;24.536;2023-01-26T08:01:21;99794.13;;;2.33;100.00
39793;BME280;26080;42.264;24.536;2023-01-26T08:03:49;99794.91;;;2.44;100.00
39793;BME280;26080;42.264;24.536;2023-01-26T08:06:15;99795.84;;;2.37;100.00
39793;BME280;26080;42.264;24.536;2023-01-26T08:08:41;99796.69;;;2.39;100.00
39793;BME280;26080;42.264;24.536;2023-01-26T08:11:08;99794.91;;;2.46;100.00
39793;BME280;26080;42.264;24.536;2023-01-26T08:13:34;99787.03;;;2.59;100.00
39793;BME280;26080;42.264;24.536;2023-01-26T08:16:01;99768.19;;;2.45;100.00
39793;BME280;26080;42.264;24.536;2023-01-26T08:18:27;99769.16;;;2.33;100.00
39793;BME280;26080;42.264;24.536;2023-01-26T08:20:53;99777.75;;;2.35;100.00
39793;BME280;26080;42.264;24.536;2023-01-26T08:23:19;99792.50;;;2.17;100.00
39793;BME280;26080;42.264;24.536;2023-01-26T08:25:45;99783.97;;;2.01;100.00
39793;BME280;26080;42.264;24.536;2023-01-26T08:28:11;99780.47;;;2.14;100.00
39793;BME280;26080;42.264;24.536;2023-01-26T08:30:40;99783.94;;;2.12;100.00
39793;BME280;26080;42.264;24.536;2023-01-26T08:33:06;99790.75;;;2.19;100.00
39793;BME280;26080;42.264;24.536;2023-01-26T08:35:32;99788.19;;;2.16;100.00
39793;BME280;26080;42.264;24.536;2023-01-26T08:37:58;99779.66;;;2.07;100.00
39793;BME280;26080;42.264;24.536;2023-01-26T08:40:24;99782.19;;;2.12;100.00
39793;BME280;26080;42.264;24.536;2023-01-26T08:42:50;99778.63;;;2.30;100.00
39793;BME280;26080;42.264;24.536;2023-01-26T08:45:16;99782.91;;;2.37;100.00
39793;BME280;26080;42.264;24.536;2023-01-26T08:47:41;99780.34;;;2.37;100.00
39793;BME280;26080;42.264;24.536;2023-01-26T08:50:08;99759.69;;;2.31;100.00
39793;BME280;26080;42.264;24.536;2023-01-26T08:52:34;99779.44;;;2.40;100.00
39793;BME280;26080;42.264;24.536;2023-01-26T08:55:00;99782.13;;;2.24;100.00
39793;BME280;26080;42.264;24.536;2023-01-26T08:57:26;99776.09;;;2.19;100.00
39793;BME280;26080;42.264;24.536;2023-01-26T08:59:51;99772.66;;;2.19;100.00
39793;BME280;26080;42.264;24.536;2023-01-26T09:02:17;99764.91;;;2.19;100.00
39793;BME280;26080;42.264;24.536;2023-01-26T09:04:42;99761.50;;;2.15;100.00
39793;BME280;26080;42.264;24.536;2023-01-26T09:07:07;99769.22;;;2.18;100.00
39793;BME280;26080;42.264;24.536;2023-01-26T09:09:34;99762.38;;;2.14;100.00
39793;BME280;26080;42.264;24.536;2023-01-26T09:11:59;99758.94;;;2.12;100.00
39793;BME280;26080;42.264;24.536;2023-01-26T09:14:25;99755.53;;;2.05;100.00
39793;BME280;26080;42.264;24.536;2023-01-26T09:16:52;99752.06;;;2.05;100.00
39793;BME280;26080;42.264;24.536;2023-01-26T09:19:17;99744.44;;;1.88;100.00
39793;BME280;26080;42.264;24.536;2023-01-26T09:21:43;99757.28;;;2.02;100.00
39793;BME280;26080;42.264;24.536;2023-01-26T09:24:08;99742.59;;;2.05;100.00
39793;BME280;26080;42.264;24.536;2023-01-26T09:26:34;99748.63;;;2.11;100.00
39793;BME280;26080;42.264;24.536;2023-01-26T09:28:59;99746.06;;;2.06;100.00
39793;BME280;26080;42.264;24.536;2023-01-26T09:31:25;99730.53;;;2.11;100.00
39793;BME280;26080;42.264;24.536;2023-01-26T09:33:50;99721.94;;;2.05;100.00
39793;BME280;26080;42.264;24.536;2023-01-26T09:36:16;99721.13;;;1.99;100.00
39793;BME280;26080;42.264;24.536;2023-01-26T09:38:42;99712.53;;;1.97;100.00
39793;BME280;26080;42.264;24.536;2023-01-26T09:44:08;99704.75;;;2.00;100.00
39793;BME280;26080;42.264;24.536;2023-01-26T09:51:59;99690.94;;;2.08;100.00
39793;BME280;26080;42.264;24.536;2023-01-26T09:54:57;99684.06;;;2.04;100.00
39793;BME280;26080;42.264;24.536;2023-01-26T09:57:46;99661.81;;;1.85;100.00
39793;BME280;26080;42.264;24.536;2023-01-26T10:00:22;99686.63;;;2.04;100.00
39793;BME280;26080;42.264;24.536;2023-01-26T10:08:38;99657.28;;;2.16;100.00
39793;BME280;26080;42.264;24.536;2023-01-26T10:11:31;99652.97;;;2.20;100.00
39793;BME280;26080;42.264;24.536;2023-01-26T10:14:14;99639.91;;;2.32;100.00
39793;BME280;26080;42.264;24.536;2023-01-26T10:16:42;99653.69;;;2.31;100.00
39793;BME280;26080;42.264;24.536;2023-01-26T10:19:17;99655.38;;;2.40;100.00
39793;BME280;26080;42.264;24.536;2023-01-26T10:21:48;99648.53;;;2.35;100.00
39793;BME280;26080;42.264;24.536;2023-01-26T10:24:19;99621.94;;;2.20;100.00
39793;BME280;26080;42.264;24.536;2023-01-26T10:26:46;99638.13;;;2.40;100.00
39793;BME280;26080;42.264;24.536;2023-01-26T10:29:20;99614.97;;;2.28;100.00
39793;BME280;26080;42.264;24.536;2023-01-26T10:31:46;99620.00;;;2.43;100.00
39793;BME280;26080;42.264;24.536;2023-01-26T10:34:14;99621.72;;;2.47;100.00
39793;BME280;26080;42.264;24.536;2023-01-26T10:36:43;99572.75;;;2.29;100.00
39793;BME280;26080;42.264;24.536;2023-01-26T10:39:14;99601.00;;;2.50;100.00
39793;BME280;26080;42.264;24.536;2023-01-26T10:41:40;99597.59;;;2.44;100.00
39793;BME280;26080;42.264;24.536;2023-01-26T10:44:29;99540.13;;;2.16;100.00
39793;BME280;26080;42.264;24.536;2023-01-26T10:47:25;99576.81;;;2.54;100.00
39793;BME280;26080;42.264;24.536;2023-01-26T10:49:51;99575.16;;;2.49;100.00
39793;BME280;26080;42.264;24.536;2023-01-26T10:52:21;99569.84;;;2.59;100.00
39793;BME280;26080;42.264;24.536;2023-01-26T10:55:08;99546.81;;;2.40;100.00
39793;BME280;26080;42.264;24.536;2023-01-26T10:57:37;99574.06;;;2.68;100.00
39793;BME280;26080;42.264;24.536;2023-01-26T11:00:05;99563.88;;;2.54;100.00
39793;BME280;26080;42.264;24.536;2023-01-26T11:02:35;99563.06;;;2.49;100.00
39793;BME280;26080;42.264;24.536;2023-01-26T11:12:47;99533.41;;;2.81;100.00
39793;BME280;26080;42.264;24.536;2023-01-26T11:15:20;99526.44;;;2.86;100.00
39793;BME280;26080;42.264;24.536;2023-01-26T11:18:16;99523.88;;;2.84;100.00
39793;BME280;26080;42.264;24.536;2023-01-26T11:21:15;99526.53;;;2.80;100.00
39793;BME280;26080;42.264;24.536;2023-01-26T11:26:48;99514.72;;;2.57;100.00
39793;BME280;26080;42.264;24.536;2023-01-26T11:35:26;99499.84;;;2.76;100.00
39793;BME280;26080;42.264;24.536;2023-01-26T11:43:12;99474.75;;;2.83;100.00
39793;BME280;26080;42.264;24.536;2023-01-26T11:46:03;99473.19;;;2.70;100.00
39793;BME280;26080;42.264;24.536;2023-01-26T11:59:40;99452.34;;;2.82;100.00
39793;BME280;26080;42.264;24.536;2023-01-26T12:02:26;99441.94;;;2.85;100.00
39793;BME280;26080;42.264;24.536;2023-01-26T12:04:53;99444.31;;;3.00;100.00
39793;BME280;26080;42.264;24.536;2023-01-26T12:07:29;99438.25;;;3.03;100.00
39793;BME280;26080;42.264;24.536;2023-01-26T12:09:57;99424.00;;;2.76;100.00
39793;BME280;26080;42.264;24.536;2023-01-26T12:12:33;99433.09;;;3.01;100.00
39793;BME280;26080;42.264;24.536;2023-01-26T12:15:10;99435.50;;;3.13;100.00
39793;BME280;26080;42.264;24.536;2023-01-26T12:20:54;99439.84;;;3.11;100.00
39793;BME280;26080;42.264;24.536;2023-01-26T12:25:57;99424.47;;;3.02;100.00
39793;BME280;26080;42.264;24.536;2023-01-26T12:28:35;99416.06;;;2.85;100.00
39793;BME280;26080;42.264;24.536;2023-01-26T12:33:32;99414.19;;;2.96;100.00
39793;BME280;26080;42.264;24.536;2023-01-26T12:36:03;99411.66;;;2.93;100.00
39793;BME280;26080;42.264;24.536;2023-01-26T12:46:45;99359.84;;;2.39;100.00
39793;BME280;26080;42.264;24.536;2023-01-26T12:51:50;99396.06;;;2.36;100.00
39793;BME280;26080;42.264;24.536;2023-01-26T12:57:17;99361.66;;;2.31;100.00
39793;BME280;26080;42.264;24.536;2023-01-26T12:59:44;99383.88;;;2.47;100.00
39793;BME280;26080;42.264;24.536;2023-01-26T13:02:27;99377.63;;;2.62;100.00
39793;BME280;26080;42.264;24.536;2023-01-26T13:04:55;99387.13;;;2.61;100.00
39793;BME280;26080;42.264;24.536;2023-01-26T13:07:38;99376.06;;;2.50;100.00
39793;BME280;26080;42.264;24.536;2023-01-26T13:12:49;99376.56;;;2.74;100.00
39793;BME280;26080;42.264;24.536;2023-01-26T13:15:17;99379.16;;;2.75;100.00
39793;BME280;26080;42.264;24.536;2023-01-26T13:20:25;99376.31;;;2.92;100.00
39793;BME280;26080;42.264;24.536;2023-01-26T13:22:52;99371.91;;;2.98;100.00
39793;BME280;26080;42.264;24.536;2023-01-26T13:25:24;99370.19;;;2.97;100.00
39793;BME280;26080;42.264;24.536;2023-01-26T13:35:15;99360.84;;;2.89;100.00
39793;BME280;26080;42.264;24.536;2023-01-26T13:38:05;99356.56;;;2.88;100.00
39793;BME280;26080;42.264;24.536;2023-01-26T13:40:41;99318.84;;;2.75;100.00
39793;BME280;26080;42.264;24.536;2023-01-26T13:48:54;99340.19;;;2.86;100.00
39793;BME280;26080;42.264;24.536;2023-01-26T13:51:35;99331.53;;;2.87;100.00
39793;BME280;26080;42.264;24.536;2023-01-26T13:54:06;99326.38;;;2.87;100.00
39793;BME280;26080;42.264;24.536;2023-01-26T13:56:37;99331.50;;;2.91;100.00
39793;BME280;26080;42.264;24.536;2023-01-26T14:01:42;99315.69;;;2.53;100.00
39793;BME280;26080;42.264;24.536;2023-01-26T14:04:13;99309.56;;;2.58;100.00
39793;BME280;26080;42.264;24.536;2023-01-26T14:06:41;99288.25;;;2.44;100.00
39793;BME280;26080;42.264;24.536;2023-01-26T14:09:11;99298.72;;;2.36;100.00
39793;BME280;26080;42.264;24.536;2023-01-26T14:11:38;99289.47;;;2.20;100.00
39793;BME280;26080;42.264;24.536;2023-01-26T14:14:04;99286.72;;;2.31;100.00
39793;BME280;26080;42.264;24.536;2023-01-26T14:16:35;99278.28;;;2.20;100.00
39793;BME280;26080;42.264;24.536;2023-01-26T14:19:17;99268.78;;;2.19;100.00
39793;BME280;26080;42.264;24.536;2023-01-26T14:24:18;99265.13;;;2.35;100.00
39793;BME280;26080;42.264;24.536;2023-01-26T14:26:46;99255.78;;;2.26;100.00
39793;BME280;26080;42.264;24.536;2023-01-26T14:29:18;99252.38;;;2.24;100.00
39793;BME280;26080;42.264;24.536;2023-01-26T14:31:45;99246.16;;;2.36;100.00
39793;BME280;26080;42.264;24.536;2023-01-26T14:34:21;99245.13;;;2.48;100.00
39793;BME280;26080;42.264;24.536;2023-01-26T14:37:05;99239.47;;;2.23;100.00
39793;BME280;26080;42.264;24.536;2023-01-26T14:39:30;99237.03;;;2.12;100.00
39793;BME280;26080;42.264;24.536;2023-01-26T14:41:56;99232.19;;;1.89;100.00
39793;BME280;26080;42.264;24.536;2023-01-26T14:44:23;99222.91;;;1.74;100.00